Time;durP1;ratioP1;P1;durP2;ratioP2;P2;SDS_P1;SDS_P2;PMS_P1;PMS_P2;Temp;Humidity;BMP_temperature;BMP_pressure;BME280_temperature;BME280_humidity;BME280_pressure;Samples;Min_cycle;Max_cycle;Signal;HPM_P1;HPM_P2
2022/05/16 00:00:36;;;;;;;7.07;4.70;;;17.60;98.90;;;;;;4999087;28;20426;-68
2022/05/16 00:03:04;;;;;;;6.30;5.27;;;17.60;98.90;;;;;;4995481;28;20424;-68
2022/05/16 00:05:31;;;;;;;7.07;4.23;;;17.60;99.00;;;;;;4983078;28;20424;-68
2022/05/16 00:07:56;;;;;;;5.70;4.87;;;17.60;98.90;;;;;;4979434;28;20472;-68
2022/05/16 00:10:23;;;;;;;8.57;5.20;;;17.70;98.90;;;;;;4985759;28;20417;-67
2022/05/16 00:12:49;;;;;;;6.77;5.57;;;17.70;98.70;;;;;;4988673;28;20179;-68
2022/05/16 00:15:16;;;;;;;5.73;4.43;;;17.70;98.80;;;;;;4987050;28;20440;-67
2022/05/16 00:17:42;;;;;;;5.90;5.30;;;17.70;98.90;;;;;;4989046;28;20197;-68
2022/05/16 00:20:09;;;;;;;5.33;4.70;;;17.60;99.00;;;;;;4987540;28;20463;-68
2022/05/16 00:22:35;;;;;;;5.50;4.97;;;17.60;99.20;;;;;;4976109;28;20176;-68
2022/05/16 00:25:00;;;;;;;7.10;4.70;;;17.70;99.00;;;;;;4971482;28;20424;-68
2022/05/16 00:27:26;;;;;;;6.23;5.20;;;17.70;98.90;;;;;;4970851;28;20522;-68
2022/05/16 00:29:51;;;;;;;6.07;4.87;;;17.70;99.10;;;;;;4970474;28;20188;-68
2022/05/16 00:32:18;;;;;;;7.13;5.83;;;17.70;99.10;;;;;;4970885;28;20219;-67
2022/05/16 00:34:44;;;;;;;6.90;6.10;;;17.60;99.20;;;;;;4971184;28;20306;-67
2022/05/16 00:37:10;;;;;;;6.10;5.50;;;17.60;99.20;;;;;;4971762;28;20429;-67
2022/05/16 00:39:35;;;;;;;6.77;6.07;;;17.60;99.50;;;;;;4970215;28;20454;-68
2022/05/16 00:42:01;;;;;;;6.97;6.30;;;17.60;99.40;;;;;;4970734;28;20192;-67
2022/05/16 00:44:28;;;;;;;8.57;6.20;;;17.60;99.50;;;;;;4970458;28;20191;-68
2022/05/16 00:46:53;;;;;;;8.00;6.20;;;17.60;99.50;;;;;;4969232;28;20452;-67
2022/05/16 00:49:31;;;;;;;6.80;6.13;;;17.60;99.70;;;;;;4970246;28;20462;-68
2022/05/16 00:52:03;;;;;;;6.93;6.23;;;17.60;99.70;;;;;;4972209;28;20573;-68
2022/05/16 00:54:38;;;;;;;8.23;6.43;;;17.60;99.90;;;;;;4989879;28;20820;-68
2022/05/16 00:57:11;;;;;;;8.57;6.30;;;17.50;99.90;;;;;;4988652;28;20522;-67
2022/05/16 01:00:09;;;;;;;10.13;6.67;;;17.50;99.90;;;;;;4988540;28;20466;-69
2022/05/16 01:05:22;;;;;;;8.30;5.67;;;17.50;99.90;;;;;;4998337;28;20811;-69
2022/05/16 01:07:48;;;;;;;6.53;5.47;;;17.50;99.90;;;;;;4988820;28;20463;-68
2022/05/16 01:10:23;;;;;;;7.33;5.00;;;17.50;99.70;;;;;;4979511;28;20502;-69
2022/05/16 01:12:54;;;;;;;7.03;5.80;;;17.50;99.70;;;;;;4971821;28;20408;-69
2022/05/16 01:15:46;;;;;;;10.70;6.17;;;17.50;99.90;;;;;;4970318;28;20537;-69
2022/05/16 01:18:18;;;;;;;6.77;4.80;;;17.60;99.60;;;;;;4970417;28;20424;-66
2022/05/16 01:20:52;;;;;;;7.80;5.60;;;17.60;99.50;;;;;;4969820;28;20499;-67
2022/05/16 01:23:20;;;;;;;6.37;4.50;;;17.50;99.90;;;;;;4970225;28;20491;-68
2022/05/16 01:25:49;;;;;;;6.97;5.03;;;17.50;99.90;;;;;;4970063;28;20427;-69
2022/05/16 01:28:18;;;;;;;5.30;4.57;;;17.50;99.70;;;;;;4970837;28;20991;-67
2022/05/16 01:30:47;;;;;;;6.70;5.37;;;17.50;99.80;;;;;;4969914;28;20425;-67
2022/05/16 01:33:17;;;;;;;7.90;5.30;;;17.50;99.80;;;;;;4970383;28;20420;-68
2022/05/16 01:35:43;;;;;;;6.17;4.70;;;17.50;99.10;;;;;;4970112;28;20521;-67
2022/05/16 01:38:26;;;;;;;7.27;4.90;;;17.60;99.40;;;;;;4969943;28;21049;-68
2022/05/16 01:40:56;;;;;;;6.37;4.40;;;17.60;98.90;;;;;;4969688;28;20192;-67
2022/05/16 01:43:26;;;;;;;5.33;4.93;;;17.60;99.00;;;;;;4970105;28;20443;-67
2022/05/16 01:45:52;;;;;;;5.77;4.70;;;17.60;99.20;;;;;;4970850;28;20462;-67
2022/05/16 01:48:18;;;;;;;5.63;4.73;;;17.60;98.70;;;;;;4969718;28;20953;-67
2022/05/16 01:50:46;;;;;;;7.27;4.60;;;17.70;98.50;;;;;;4968260;28;20315;-67
2022/05/16 01:53:12;;;;;;;5.80;4.17;;;17.80;98.10;;;;;;4969677;28;20417;-68
2022/05/16 01:55:38;;;;;;;5.63;4.57;;;17.90;97.70;;;;;;4969811;28;20503;-67
2022/05/16 01:58:04;;;;;;;8.10;4.20;;;17.90;97.50;;;;;;4969613;28;20518;-68
2022/05/16 02:00:31;;;;;;;5.33;4.73;;;18.00;97.30;;;;;;4969348;28;20177;-68
2022/05/16 02:02:57;;;;;;;8.03;4.30;;;18.00;97.30;;;;;;4985394;28;20431;-68
2022/05/16 02:05:24;;;;;;;6.10;4.23;;;18.00;97.10;;;;;;4987924;28;20754;-67
2022/05/16 02:07:52;;;;;;;5.33;4.50;;;18.10;97.10;;;;;;4989057;28;20466;-68
2022/05/16 02:10:21;;;;;;;6.30;4.50;;;18.10;97.20;;;;;;4989978;28;20912;-67
2022/05/16 02:12:46;;;;;;;4.50;4.07;;;18.00;97.10;;;;;;4992013;28;20912;-68
2022/05/16 02:15:16;;;;;;;4.70;4.00;;;18.10;96.70;;;;;;4978571;28;20428;-68
2022/05/16 02:17:42;;;;;;;5.23;4.70;;;18.10;96.80;;;;;;4969849;28;20263;-68
2022/05/16 02:20:08;;;;;;;6.67;4.20;;;18.10;96.80;;;;;;4972414;28;20420;-67
2022/05/16 02:25:18;;;;;;;6.57;4.57;;;18.10;97.10;;;;;;4973190;28;20575;-67
2022/05/16 02:27:46;;;;;;;5.57;4.97;;;18.00;97.00;;;;;;4972582;28;20488;-68
2022/05/16 02:30:13;;;;;;;5.43;4.50;;;18.00;96.90;;;;;;4982602;28;20267;-67
2022/05/16 02:32:38;;;;;;;5.10;4.30;;;17.90;97.20;;;;;;4991936;28;20416;-68
2022/05/16 02:35:05;;;;;;;5.50;4.20;;;17.90;97.20;;;;;;4992081;28;20484;-67
2022/05/16 02:37:30;;;;;;;4.50;4.10;;;17.90;97.20;;;;;;4976036;28;20621;-66
2022/05/16 02:39:56;;;;;;;7.27;4.00;;;17.90;97.00;;;;;;5011578;22;20529;-66
2022/05/16 02:42:21;;;;;;;5.80;3.90;;;17.90;97.20;;;;;;5012070;28;20198;-65
2022/05/16 02:44:47;;;;;;;8.30;4.57;;;17.90;97.30;;;;;;5011504;28;20179;-66
2022/05/16 02:47:16;;;;;;;7.47;4.50;;;17.90;97.20;;;;;;5011572;28;20660;-66
2022/05/16 02:49:42;;;;;;;6.97;4.23;;;17.80;97.30;;;;;;5028337;28;20194;-65
2022/05/16 02:52:07;;;;;;;6.00;5.37;;;17.80;97.60;;;;;;5030804;28;20506;-65
2022/05/16 02:54:33;;;;;;;5.67;4.50;;;17.70;97.80;;;;;;5031591;28;20433;-66
2022/05/16 02:56:59;;;;;;;5.17;4.67;;;17.60;98.20;;;;;;5031849;28;20544;-66
2022/05/16 02:59:32;;;;;;;6.33;4.50;;;17.50;98.50;;;;;;5038698;28;20224;-64
2022/05/16 03:02:02;;;;;;;8.00;4.27;;;17.40;98.40;;;;;;5051209;28;20179;-66
2022/05/16 03:04:27;;;;;;;8.10;5.47;;;17.30;99.10;;;;;;5054247;28;20433;-64
2022/05/16 03:06:54;;;;;;;5.17;4.70;;;17.30;98.90;;;;;;5055952;28;20413;-63
2022/05/16 03:09:19;;;;;;;4.90;4.40;;;17.30;99.00;;;;;;5050988;28;20735;-66
2022/05/16 03:11:45;;;;;;;4.97;4.47;;;17.30;99.20;;;;;;5031144;28;20430;-66
2022/05/16 03:14:11;;;;;;;4.73;4.30;;;17.30;99.10;;;;;;5030683;28;20183;-65
2022/05/16 03:16:37;;;;;;;5.20;4.70;;;17.30;99.30;;;;;;5031200;28;20211;-66
2022/05/16 03:19:03;;;;;;;6.47;4.40;;;17.20;99.50;;;;;;5030642;28;20909;-65
2022/05/16 03:21:29;;;;;;;4.73;4.10;;;17.20;99.80;;;;;;5030530;28;20445;-67
2022/05/16 03:23:55;;;;;;;5.00;4.10;;;17.10;99.50;;;;;;5030867;28;20437;-66
2022/05/16 03:26:21;;;;;;;4.20;3.80;;;17.10;99.50;;;;;;5028818;28;20795;-66
2022/05/16 03:28:47;;;;;;;5.20;4.80;;;17.20;99.30;;;;;;5030781;28;20461;-65
2022/05/16 03:31:12;;;;;;;5.33;4.40;;;17.20;99.30;;;;;;5020412;28;20565;-66
2022/05/16 03:33:38;;;;;;;6.10;4.00;;;17.20;99.10;;;;;;5010333;28;20180;-66
2022/05/16 03:36:03;;;;;;;4.10;3.70;;;17.20;99.00;;;;;;5010327;28;20172;-67
2022/05/16 03:41:14;;;;;;;4.90;4.17;;;17.20;98.60;;;;;;5009997;28;20182;-65
2022/05/16 03:43:41;;;;;;;6.87;4.50;;;17.20;98.90;;;;;;5018168;28;20418;-65
2022/05/16 03:46:08;;;;;;;5.43;4.50;;;17.20;99.00;;;;;;5019500;28;20827;-65
2022/05/16 03:48:34;;;;;;;4.10;3.70;;;17.20;98.60;;;;;;5018113;28;20539;-66
2022/05/16 03:51:01;;;;;;;4.97;3.90;;;17.30;98.50;;;;;;5019949;28;20504;-65
2022/05/16 03:53:27;;;;;;;10.20;4.00;;;17.30;98.20;;;;;;5020185;28;20696;-66
2022/05/16 03:55:53;;;;;;;4.70;4.20;;;17.30;99.10;;;;;;5019225;28;20911;-66
2022/05/16 03:58:18;;;;;;;5.87;5.23;;;17.20;99.20;;;;;;5024515;28;20498;-67
2022/05/16 04:00:45;;;;;;;6.13;4.30;;;17.10;99.60;;;;;;5027583;28;20186;-65
2022/05/16 04:03:10;;;;;;;6.00;4.77;;;17.10;99.60;;;;;;5034875;28;20243;-64
2022/05/16 04:05:36;;;;;;;5.03;4.10;;;17.10;99.60;;;;;;5039799;28;20438;-66
2022/05/16 04:08:03;;;;;;;5.27;4.80;;;17.00;99.90;;;;;;5034889;28;20237;-66
2022/05/16 04:10:29;;;;;;;7.07;4.17;;;16.90;99.90;;;;;;5023439;28;20542;-66
2022/05/16 04:12:55;;;;;;;7.03;5.10;;;16.80;99.90;;;;;;5030268;28;20414;-66
2022/05/16 04:15:21;;;;;;;7.20;4.57;;;16.80;99.90;;;;;;5029685;28;20526;-64
2022/05/16 04:17:48;;;;;;;4.80;4.30;;;16.80;99.90;;;;;;5018381;27;20217;-65
2022/05/16 04:20:15;;;;;;;5.23;4.77;;;16.80;99.90;;;;;;5036099;28;20457;-66
2022/05/16 04:22:42;;;;;;;5.13;4.63;;;16.80;99.90;;;;;;5031445;28;20473;-66
2022/05/16 04:25:10;;;;;;;6.23;4.80;;;16.80;99.90;;;;;;5035503;28;20479;-66
2022/05/16 04:27:35;;;;;;;7.13;5.60;;;16.80;99.90;;;;;;5035341;28;20485;-66
2022/05/16 04:30:01;;;;;;;5.40;4.90;;;16.80;99.90;;;;;;5039276;28;20456;-65
2022/05/16 04:32:27;;;;;;;7.43;4.50;;;16.90;99.90;;;;;;5021894;28;20294;-65
2022/05/16 04:34:52;;;;;;;5.50;4.73;;;16.90;99.90;;;;;;5008276;28;20800;-66
2022/05/16 04:37:18;;;;;;;6.10;5.03;;;16.90;99.90;;;;;;5022231;28;20245;-65
2022/05/16 04:39:43;;;;;;;5.20;4.57;;;17.00;99.90;;;;;;5027023;28;20218;-66
2022/05/16 04:44:53;;;;;;;5.30;4.53;;;17.00;99.90;;;;;;5027265;28;20213;-67
2022/05/16 04:47:18;;;;;;;6.97;4.83;;;17.00;99.90;;;;;;5024741;28;20782;-66
2022/05/16 04:49:44;;;;;;;8.87;5.20;;;17.10;99.90;;;;;;5028066;28;20198;-68
2022/05/16 04:52:11;;;;;;;6.00;4.47;;;17.10;99.90;;;;;;5028881;28;20178;-67
2022/05/16 04:54:37;;;;;;;9.93;4.60;;;17.20;99.90;;;;;;5028945;28;20181;-67
2022/05/16 04:57:03;;;;;;;7.00;4.63;;;17.30;99.90;;;;;;5027342;28;20499;-68
2022/05/16 04:59:29;;;;;;;7.83;4.33;;;17.30;99.90;;;;;;5028678;28;20511;-68
2022/05/16 05:01:54;;;;;;;9.20;5.00;;;17.30;99.80;;;;;;5029100;28;20476;-66
2022/05/16 05:04:21;;;;;;;8.20;4.63;;;17.40;99.60;;;;;;5029170;28;20190;-67
2022/05/16 05:06:47;;;;;;;5.27;4.60;;;17.40;99.40;;;;;;5029468;28;20186;-67
2022/05/16 05:09:12;;;;;;;8.10;4.63;;;17.50;99.40;;;;;;5026946;28;20458;-66
2022/05/16 05:14:34;;;;;;;6.67;4.70;;;17.60;99.20;;;;;;5029235;28;20214;-68
2022/05/16 05:17:10;;;;;;;5.87;4.53;;;17.70;99.60;;;;;;5028653;28;20462;-68
2022/05/16 05:19:40;;;;;;;6.07;4.77;;;17.80;99.40;;;;;;5026857;28;20441;-68
2022/05/16 05:22:06;;;;;;;7.80;4.40;;;17.80;99.30;;;;;;5028855;28;20953;-67
2022/05/16 05:24:32;;;;;;;6.00;4.10;;;17.90;99.00;;;;;;5028644;28;20932;-67
2022/05/16 05:26:57;;;;;;;6.90;3.90;;;18.00;98.40;;;;;;5028786;28;20420;-68
2022/05/16 05:29:24;;;;;;;5.40;3.80;;;18.10;98.30;;;;;;5026718;28;20210;-67
2022/05/16 05:31:50;;;;;;;5.03;4.53;;;18.30;97.60;;;;;;5028666;28;20319;-68
2022/05/16 05:34:17;;;;;;;6.13;4.60;;;18.40;97.50;;;;;;5028951;28;20422;-69
2022/05/16 05:36:43;;;;;;;6.33;4.00;;;18.50;97.40;;;;;;5028557;28;20496;-67
2022/05/16 05:39:09;;;;;;;4.70;4.20;;;18.60;96.60;;;;;;5028344;28;20461;-68
2022/05/16 05:41:35;;;;;;;6.47;4.30;;;18.80;95.70;;;;;;5026656;28;20486;-68
2022/05/16 05:44:01;;;;;;;4.67;4.27;;;18.90;95.70;;;;;;5028598;28;20886;-69
2022/05/16 05:46:27;;;;;;;9.90;4.73;;;19.00;95.40;;;;;;5028401;28;20258;-68
2022/05/16 05:48:53;;;;;;;7.20;5.13;;;19.10;95.60;;;;;;5028200;28;20287;-68
2022/05/16 05:51:19;;;;;;;5.07;4.50;;;19.10;95.80;;;;;;5026593;28;20436;-68
2022/05/16 05:53:45;;;;;;;4.50;4.10;;;19.20;95.30;;;;;;5029429;28;20417;-67
2022/05/16 05:56:12;;;;;;;5.70;4.07;;;19.30;95.00;;;;;;5013543;28;20518;-67
2022/05/16 05:58:38;;;;;;;9.10;4.50;;;19.40;94.70;;;;;;5040659;28;20203;-68
2022/05/16 06:01:05;;;;;;;12.73;4.63;;;19.40;94.80;;;;;;5032962;27;20826;-68
2022/05/16 06:03:31;;;;;;;4.50;4.07;;;19.50;94.80;;;;;;5032184;28;20262;-68
2022/05/16 06:05:56;;;;;;;8.00;4.17;;;19.60;94.70;;;;;;5041311;28;20861;-68
2022/05/16 06:08:22;;;;;;;4.63;3.60;;;19.70;94.50;;;;;;5040339;28;20214;-67
2022/05/16 06:10:49;;;;;;;12.33;3.90;;;19.70;94.20;;;;;;5038059;28;20272;-69
2022/05/16 06:13:16;;;;;;;3.50;3.20;;;19.80;94.00;;;;;;5014716;28;20286;-67
2022/05/16 06:15:41;;;;;;;4.23;3.93;;;19.90;93.90;;;;;;5010383;28;20447;-69
2022/05/16 06:18:07;;;;;;;7.60;4.30;;;20.00;93.70;;;;;;5044558;28;20445;-68
2022/05/16 06:20:33;;;;;;;4.70;4.30;;;19.90;93.70;;;;;;5049969;28;20646;-66
2022/05/16 06:22:59;;;;;;;5.57;3.70;;;20.00;93.80;;;;;;5030288;28;20431;-66
2022/05/16 06:25:33;;;;;;;5.83;4.20;;;20.00;93.70;;;;;;5009673;28;20196;-68
2022/05/16 06:28:15;;;;;;;6.70;4.07;;;20.00;93.90;;;;;;5009161;28;20703;-66
2022/05/16 06:30:46;;;;;;;5.73;4.13;;;20.10;94.20;;;;;;5009278;28;20447;-67
2022/05/16 06:33:14;;;;;;;6.27;3.90;;;20.00;94.10;;;;;;5012692;28;20847;-67
2022/05/16 06:35:40;;;;;;;4.10;3.80;;;20.00;94.60;;;;;;5047143;28;20944;-65
2022/05/16 06:38:16;;;;;;;6.80;4.17;;;20.00;94.50;;;;;;5029089;28;20488;-66
2022/05/16 06:40:46;;;;;;;7.37;3.97;;;20.00;94.70;;;;;;5037690;28;20453;-67
2022/05/16 06:43:12;;;;;;;5.03;4.27;;;20.10;94.70;;;;;;5048851;28;20988;-67
2022/05/16 06:45:37;;;;;;;7.03;4.10;;;20.20;94.60;;;;;;5049238;28;20466;-66
2022/05/16 06:48:04;;;;;;;5.73;3.67;;;20.20;94.10;;;;;;5015695;28;21053;-68
2022/05/16 06:50:31;;;;;;;5.73;3.90;;;20.20;93.80;;;;;;5009704;28;20195;-67
2022/05/16 06:52:57;;;;;;;4.30;3.63;;;20.30;93.90;;;;;;5009016;27;20879;-69
2022/05/16 06:55:23;;;;;;;4.53;3.90;;;20.40;93.50;;;;;;5010033;28;20572;-65
2022/05/16 06:57:48;;;;;;;6.53;3.93;;;20.40;93.30;;;;;;5008783;28;20544;-67
2022/05/16 07:00:15;;;;;;;4.60;3.50;;;20.50;93.10;;;;;;5009405;28;20987;-68
2022/05/16 07:02:40;;;;;;;6.23;3.87;;;20.60;92.80;;;;;;5008912;28;20290;-67
2022/05/16 07:05:07;;;;;;;5.13;3.80;;;20.70;92.70;;;;;;5008532;28;20527;-67
2022/05/16 07:07:33;;;;;;;7.20;3.80;;;20.80;92.50;;;;;;5014794;28;20754;-66
2022/05/16 07:10:00;;;;;;;6.83;4.00;;;21.00;92.40;;;;;;5044933;28;20453;-70
2022/05/16 07:12:26;;;;;;;6.27;3.73;;;21.00;92.30;;;;;;5041791;28;20490;-68
2022/05/16 07:14:52;;;;;;;3.73;3.20;;;21.10;92.30;;;;;;5035005;28;20470;-69
2022/05/16 07:17:17;;;;;;;4.00;3.67;;;21.10;92.40;;;;;;5021909;28;20450;-66
2022/05/16 07:19:43;;;;;;;5.40;3.90;;;21.10;92.20;;;;;;5017342;28;20462;-68
2022/05/16 07:22:11;;;;;;;4.67;4.27;;;21.20;92.20;;;;;;5008935;28;20230;-67
2022/05/16 07:24:39;;;;;;;5.00;4.50;;;21.20;92.00;;;;;;5008092;28;20212;-67
2022/05/16 07:29:49;;;;;;;4.23;3.33;;;21.20;91.90;;;;;;5020622;28;20457;-68
2022/05/16 07:32:15;;;;;;;4.13;3.73;;;21.20;92.00;;;;;;5026037;28;20966;-69
2022/05/16 07:34:40;;;;;;;5.40;3.90;;;21.20;92.10;;;;;;5009024;28;20214;-66
2022/05/16 07:37:06;;;;;;;4.53;4.03;;;21.20;92.20;;;;;;5010482;28;20239;-68
2022/05/16 07:39:35;;;;;;;5.43;4.00;;;21.20;92.30;;;;;;5008935;28;20249;-69
2022/05/16 07:42:01;;;;;;;5.50;3.73;;;21.20;92.40;;;;;;5047897;28;20441;-68
2022/05/16 07:44:27;;;;;;;5.33;3.90;;;21.20;92.50;;;;;;5048592;28;20505;-69
2022/05/16 07:46:52;;;;;;;4.00;3.60;;;21.20;92.60;;;;;;5048603;28;20520;-69
2022/05/16 07:49:19;;;;;;;5.10;3.73;;;21.10;92.60;;;;;;5019443;28;20226;-66
2022/05/16 07:51:45;;;;;;;8.63;4.03;;;21.00;92.90;;;;;;5009484;28;20605;-69
2022/05/16 07:54:11;;;;;;;4.83;4.00;;;21.00;93.00;;;;;;5007834;28;20421;-66
2022/05/16 07:56:38;;;;;;;5.37;4.00;;;21.00;93.20;;;;;;5009224;28;20207;-69
2022/05/16 07:59:03;;;;;;;4.30;3.93;;;20.90;93.50;;;;;;5009371;28;20199;-68
2022/05/16 08:01:29;;;;;;;5.33;4.23;;;20.70;93.70;;;;;;5009363;28;20511;-67
2022/05/16 08:03:55;;;;;;;5.33;3.80;;;20.70;94.00;;;;;;5009664;28;20270;-68
2022/05/16 08:06:20;;;;;;;5.20;3.67;;;20.70;94.10;;;;;;5008768;28;20451;-67
2022/05/16 08:11:30;;;;;;;5.53;4.10;;;20.50;94.50;;;;;;5040975;28;20279;-72
2022/05/16 08:13:56;;;;;;;7.47;4.20;;;20.50;95.00;;;;;;5047029;28;20440;-68
2022/05/16 08:16:22;;;;;;;4.40;4.10;;;20.50;95.10;;;;;;5048416;28;20675;-67
2022/05/16 08:18:47;;;;;;;4.27;3.87;;;20.60;95.20;;;;;;5047852;28;20199;-67
2022/05/16 08:21:13;;;;;;;4.90;4.03;;;20.70;95.00;;;;;;5021534;28;20220;-68
2022/05/16 08:23:39;;;;;;;3.97;3.67;;;20.80;95.00;;;;;;5008924;28;20195;-66
2022/05/16 08:26:05;;;;;;;4.37;3.80;;;20.90;95.00;;;;;;5010172;28;20219;-68
2022/05/16 08:28:34;;;;;;;5.83;4.23;;;21.00;94.90;;;;;;5025393;28;20471;-65
2022/05/16 08:31:01;;;;;;;4.90;4.20;;;21.00;95.00;;;;;;5018308;28;20218;-69
2022/05/16 08:33:26;;;;;;;4.17;3.73;;;21.00;95.20;;;;;;5017828;28;20874;-67
2022/05/16 08:41:56;;;;;;;5.13;4.40;;;21.00;95.60;;;;;;5038554;28;20521;-67
2022/05/16 08:44:38;;;;;;;7.23;3.77;;;21.10;95.80;;;;;;5048967;28;20555;-67
2022/05/16 08:47:18;;;;;;;4.23;3.83;;;21.00;96.00;;;;;;5032147;28;20454;-67
2022/05/16 08:49:56;;;;;;;5.97;4.50;;;21.10;96.10;;;;;;5011322;28;20808;-68
2022/05/16 08:52:27;;;;;;;6.30;4.20;;;21.00;96.30;;;;;;5008284;28;20483;-67
2022/05/16 08:55:07;;;;;;;4.03;3.67;;;21.10;96.50;;;;;;5006861;28;20571;-68
2022/05/16 08:57:40;;;;;;;5.03;3.73;;;21.10;96.50;;;;;;5009061;28;20454;-67
2022/05/16 09:00:12;;;;;;;4.63;4.00;;;21.20;96.60;;;;;;5014934;28;20453;-68
2022/05/16 09:02:42;;;;;;;5.37;3.90;;;21.30;96.70;;;;;;5028973;28;20417;-69
2022/05/16 09:05:13;;;;;;;5.30;3.97;;;21.30;97.00;;;;;;5028993;28;20398;-68
2022/05/16 09:07:52;;;;;;;4.27;3.87;;;21.40;97.30;;;;;;5028130;28;20541;-67
2022/05/16 09:10:24;;;;;;;4.57;4.17;;;21.50;97.30;;;;;;5019895;28;20415;-68
2022/05/16 09:13:19;;;;;;;4.30;3.90;;;21.50;97.40;;;;;;5011865;28;20415;-68
2022/05/16 09:16:02;;;;;;;5.13;3.83;;;21.60;97.60;;;;;;5017320;28;20425;-65
2022/05/16 09:18:36;;;;;;;4.37;3.40;;;21.70;97.70;;;;;;5028295;28;20491;-69
2022/05/16 09:21:34;;;;;;;7.07;4.20;;;21.70;97.80;;;;;;5026454;28;20418;-69
2022/05/16 09:24:11;;;;;;;5.53;4.40;;;21.80;98.00;;;;;;5019272;28;20554;-68
2022/05/16 09:30:07;;;;;;;5.67;3.90;;;21.80;98.00;;;;;;5001292;28;20478;-68
2022/05/16 09:32:36;;;;;;;3.57;3.27;;;21.80;98.10;;;;;;5009839;28;20406;-66
2022/05/16 09:35:04;;;;;;;4.90;4.00;;;21.90;98.00;;;;;;5009419;28;20463;-67
2022/05/16 09:37:30;;;;;;;7.47;4.50;;;21.90;98.10;;;;;;5009734;28;20179;-68
2022/05/16 09:39:56;;;;;;;4.37;4.00;;;21.90;98.20;;;;;;5008671;28;20458;-68
2022/05/16 09:42:24;;;;;;;5.20;4.30;;;21.90;98.70;;;;;;4994261;28;20946;-68
2022/05/16 09:45:13;;;;;;;16.07;5.33;;;21.90;98.90;;;;;;4993233;28;21117;-68
2022/05/16 09:47:42;;;;;;;7.77;4.13;;;21.90;98.80;;;;;;5009581;28;20454;-69
2022/05/16 09:50:27;;;;;;;7.87;4.87;;;22.00;98.80;;;;;;5009138;28;20428;-67
2022/05/16 09:53:02;;;;;;;4.50;3.77;;;21.90;99.00;;;;;;5009839;28;20906;-67
2022/05/16 09:55:48;;;;;;;5.17;4.53;;;22.00;99.00;;;;;;5011909;28;20418;-68
2022/05/16 09:58:18;;;;;;;8.80;5.33;;;22.00;98.90;;;;;;5011896;28;20477;-69
2022/05/16 10:01:03;;;;;;;3.97;3.67;;;22.10;98.90;;;;;;5013906;28;20424;-68
2022/05/16 10:03:31;;;;;;;11.20;5.00;;;22.20;99.10;;;;;;5011926;28;20414;-68
2022/05/16 10:06:02;;;;;;;5.73;4.90;;;22.30;99.00;;;;;;5012902;28;20941;-68
2022/05/16 10:08:36;;;;;;;5.20;4.67;;;22.40;99.00;;;;;;5034243;28;20456;-68
2022/05/16 10:11:08;;;;;;;5.10;4.07;;;22.40;98.90;;;;;;5054192;28;20411;-66
2022/05/16 10:13:35;;;;;;;7.10;4.70;;;22.60;98.60;;;;;;5031988;28;20429;-69
2022/05/16 10:16:05;;;;;;;6.13;4.00;;;22.80;98.30;;;;;;5040002;28;20479;-66
2022/05/16 10:18:44;;;;;;;3.87;3.57;;;22.80;97.90;;;;;;5050877;28;20485;-67
2022/05/16 10:21:25;;;;;;;3.60;3.30;;;22.90;97.60;;;;;;5050440;28;20470;-66
2022/05/16 10:23:51;;;;;;;5.00;4.03;;;23.10;97.30;;;;;;5048101;28;20470;-67
2022/05/16 10:26:21;;;;;;;5.67;4.13;;;23.30;97.00;;;;;;5036305;28;20977;-67
2022/05/16 10:28:54;;;;;;;4.20;3.60;;;23.40;97.00;;;;;;5033236;28;20849;-66
2022/05/16 10:34:35;;;;;;;3.70;3.40;;;23.90;96.50;;;;;;5031966;28;20425;-67
2022/05/16 10:37:03;;;;;;;4.50;3.27;;;24.10;96.00;;;;;;5021532;28;20426;-68
2022/05/16 10:39:30;;;;;;;4.30;3.10;;;24.30;95.50;;;;;;5013592;28;20500;-67
2022/05/16 10:42:14;;;;;;;5.07;3.30;;;24.40;95.50;;;;;;5014416;28;20790;-67
2022/05/16 10:45:00;;;;;;;3.33;3.03;;;24.50;94.90;;;;;;5015331;28;20509;-68
2022/05/16 10:47:30;;;;;;;5.63;3.00;;;24.40;94.70;;;;;;5017198;28;20462;-67
2022/05/16 10:50:07;;;;;;;3.37;3.07;;;24.30;94.70;;;;;;5017630;28;20431;-66
2022/05/16 10:52:41;;;;;;;4.20;3.10;;;24.50;94.70;;;;;;5022207;28;20414;-68
2022/05/16 10:55:07;;;;;;;3.90;3.40;;;24.60;94.20;;;;;;5025996;28;20441;-68
2022/05/16 10:58:09;;;;;;;4.17;3.50;;;24.80;93.40;;;;;;5036327;28;20419;-66
2022/05/16 11:00:45;;;;;;;4.00;3.70;;;24.80;93.30;;;;;;5035975;28;20169;-65
2022/05/16 11:03:29;;;;;;;6.70;3.77;;;25.00;93.20;;;;;;5033858;28;20402;-65
2022/05/16 11:06:09;;;;;;;3.67;3.37;;;24.80;93.50;;;;;;5024768;28;20462;-67
2022/05/16 11:09:03;;;;;;;4.00;3.60;;;24.70;93.60;;;;;;5021585;28;20581;-65
2022/05/16 11:11:33;;;;;;;4.60;4.07;;;24.70;93.40;;;;;;5031203;28;20211;-66
2022/05/16 11:14:19;;;;;;;3.30;3.00;;;24.60;92.80;;;;;;5029431;28;20513;-65
2022/05/16 11:16:45;;;;;;;3.43;2.90;;;24.50;92.90;;;;;;5030571;28;20413;-66
2022/05/16 11:19:19;;;;;;;4.57;4.13;;;24.60;92.60;;;;;;5028042;28;20535;-66
2022/05/16 11:21:54;;;;;;;3.40;2.87;;;24.60;92.60;;;;;;5030023;28;20416;-65
2022/05/16 11:25:00;;;;;;;3.63;3.33;;;24.60;91.80;;;;;;5030946;28;20474;-67
2022/05/16 11:27:26;;;;;;;3.37;3.13;;;24.70;91.40;;;;;;5031637;28;20957;-67
2022/05/16 11:30:29;;;;;;;4.47;3.60;;;24.70;91.40;;;;;;5030007;28;20440;-66
2022/05/16 11:33:01;;;;;;;3.43;3.10;;;24.70;91.40;;;;;;5030353;28;20174;-66
2022/05/16 11:35:40;;;;;;;3.80;3.50;;;24.70;91.00;;;;;;5030462;28;20467;-67
2022/05/16 11:38:35;;;;;;;4.80;4.40;;;24.70;91.20;;;;;;5029927;28;20453;-64
2022/05/16 11:41:12;;;;;;;5.83;4.87;;;24.80;90.90;;;;;;5028501;28;20600;-65
2022/05/16 11:43:43;;;;;;;7.70;4.20;;;24.80;91.00;;;;;;5030022;28;20416;-65
2022/05/16 11:46:18;;;;;;;5.40;4.90;;;24.80;91.40;;;;;;5030556;28;20769;-64
2022/05/16 11:49:15;;;;;;;4.83;4.30;;;24.80;91.00;;;;;;5030195;28;20461;-66
2022/05/16 11:52:04;;;;;;;9.43;5.63;;;24.80;91.50;;;;;;5028323;28;20946;-65
2022/05/16 11:54:44;;;;;;;9.00;6.47;;;24.90;91.20;;;;;;5038737;28;20417;-63
2022/05/16 12:02:52;;;;;;;4.20;3.50;;;25.10;91.00;;;;;;5033711;28;20446;-63
2022/05/16 12:05:20;;;;;;;9.10;6.23;;;25.20;91.10;;;;;;5023231;28;20443;-66
2022/05/16 12:07:50;;;;;;;6.50;4.37;;;25.50;90.30;;;;;;5044428;28;20480;-67
2022/05/16 12:10:16;;;;;;;4.03;3.67;;;25.60;90.20;;;;;;5017916;28;20511;-66
2022/05/16 12:12:44;;;;;;;3.77;3.27;;;25.60;88.50;;;;;;5010527;28;21063;-66
2022/05/16 12:15:16;;;;;;;5.27;4.07;;;25.70;88.20;;;;;;5011381;28;20192;-64
2022/05/16 12:17:59;;;;;;;4.20;3.60;;;25.70;88.50;;;;;;5008534;28;20439;-65
2022/05/16 12:20:43;;;;;;;5.60;4.67;;;25.70;89.10;;;;;;5009257;28;20446;-65
2022/05/16 12:23:11;;;;;;;5.07;3.80;;;25.70;90.10;;;;;;5008026;28;20449;-66
2022/05/16 12:25:38;;;;;;;4.53;4.10;;;25.70;90.40;;;;;;5008424;28;20430;-64
2022/05/16 12:28:13;;;;;;;6.57;4.20;;;25.50;90.50;;;;;;5008987;28;20466;-66
2022/05/16 12:30:51;;;;;;;6.20;4.60;;;25.60;90.90;;;;;;5010624;28;20472;-65
2022/05/16 12:33:41;;;;;;;5.50;4.40;;;25.40;91.40;;;;;;5029521;28;20747;-66
2022/05/16 12:36:15;;;;;;;6.40;3.73;;;25.40;91.40;;;;;;5027656;28;20598;-67
2022/05/16 12:38:42;;;;;;;5.00;4.50;;;25.40;91.80;;;;;;5029222;28;20481;-67
2022/05/16 12:41:39;;;;;;;9.83;5.97;;;25.20;92.60;;;;;;5029000;28;20410;-65
2022/05/16 12:44:23;;;;;;;11.53;6.63;;;25.20;95.00;;;;;;5029174;28;20432;-64
2022/05/16 12:47:11;;;;;;;9.70;5.80;;;24.70;99.90;;;;;;5026868;28;20784;-66
2022/05/16 12:50:10;;;;;;;7.33;6.00;;;24.50;99.90;;;;;;5028762;28;20465;-66
2022/05/16 12:52:57;;;;;;;8.40;6.80;;;24.50;99.90;;;;;;5029250;28;20811;-65
2022/05/16 12:56:03;;;;;;;8.50;5.78;;;24.50;99.90;;;;;;5028659;28;20406;-66
2022/05/16 12:58:29;;;;;;;8.27;6.00;;;24.70;99.90;;;;;;5027260;28;20591;-67
2022/05/16 13:01:13;;;;;;;10.37;6.50;;;24.80;99.50;;;;;;5029004;28;20445;-65
2022/05/16 13:04:09;;;;;;;9.27;6.17;;;24.80;99.90;;;;;;5029217;28;20258;-66
2022/05/16 13:06:38;;;;;;;8.87;6.30;;;24.80;99.90;;;;;;5029248;28;20528;-66
2022/05/16 13:09:09;;;;;;;9.93;6.60;;;24.80;99.90;;;;;;5014056;28;20477;-66
2022/05/16 13:11:45;;;;;;;7.80;5.80;;;24.70;99.90;;;;;;5008824;28;20936;-67
2022/05/16 13:14:20;;;;;;;9.60;5.37;;;24.70;99.90;;;;;;5008490;28;20914;-66
2022/05/16 13:17:07;;;;;;;7.30;6.50;;;24.70;99.90;;;;;;5008450;28;20613;-66
2022/05/16 13:19:41;;;;;;;8.33;7.00;;;24.60;99.90;;;;;;5009264;28;20479;-65
2022/05/16 13:22:21;;;;;;;9.23;7.97;;;24.50;99.90;;;;;;5008597;28;20398;-65
2022/05/16 13:24:53;;;;;;;9.40;6.50;;;24.20;99.90;;;;;;5008729;28;20865;-67
2022/05/16 13:30:16;;;;;;;8.20;6.20;;;23.90;99.90;;;;;;5009388;28;20448;-65
2022/05/16 13:32:42;;;;;;;;;;;23.60;99.90;;;;;;5008666;28;25101;-68
2022/05/16 13:35:11;;;;;;;11.05;8.40;;;23.00;99.90;;;;;;5006323;28;20862;-68
2022/05/16 13:37:50;;;;;;;10.03;8.27;;;22.20;99.90;;;;;;4985487;28;20419;-68
2022/05/16 13:40:26;;;;;;;10.93;8.70;;;21.40;99.90;;;;;;5007989;28;21029;-67
2022/05/16 13:42:54;;;;;;;12.10;8.25;;;20.90;99.90;;;;;;5006560;28;20424;-64
2022/05/16 13:45:24;;;;;;;;;;;20.40;99.90;;;;;;5029470;28;25078;-74